sensor_id;sensor_type;location;lat;lon;timestamp;temperature;humidity
15713;DHT22;7957;51.608;6.916;2023-02-22T03:03:47;6.20;99.90
15713;DHT22;7957;51.608;6.916;2023-02-22T03:06:43;6.20;99.90
15713;DHT22;7957;51.608;6.916;2023-02-22T03:09:20;6.20;99.90
15713;DHT22;7957;51.608;6.916;2023-02-22T03:11:57;6.30;99.90
15713;DHT22;7957;51.608;6.916;2023-02-22T03:14:34;6.30;99.90
15713;DHT22;7957;51.608;6.916;2023-02-22T03:17:10;6.30;99.90
15713;DHT22;7957;51.608;6.916;2023-02-22T03:19:44;6.30;99.90
15713;DHT22;7957;51.608;6.916;2023-02-22T03:22:16;6.30;99.90
15713;DHT22;7957;51.608;6.916;2023-02-22T03:24:47;6.20;99.90
15713;DHT22;7957;51.608;6.916;2023-02-22T03:27:20;6.20;99.90
15713;DHT22;7957;51.608;6.916;2023-02-22T03:29:51;6.30;99.90
15713;DHT22;7957;51.608;6.916;2023-02-22T03:32:22;6.30;99.90
15713;DHT22;7957;51.608;6.916;2023-02-22T03:34:58;6.30;99.90
15713;DHT22;7957;51.608;6.916;2023-02-22T03:37:29;6.30;99.90
15713;DHT22;7957;51.608;6.916;2023-02-22T03:39:59;6.30;99.90
15713;DHT22;7957;51.608;6.916;2023-02-22T03:42:34;6.30;99.90
15713;DHT22;7957;51.608;6.916;2023-02-22T03:45:04;6.30;99.90
15713;DHT22;7957;51.608;6.916;2023-02-22T03:47:37;6.30;99.90
15713;DHT22;7957;51.608;6.916;2023-02-22T03:50:11;6.30;99.90
15713;DHT22;7957;51.608;6.916;2023-02-22T03:52:40;6.30;99.90
15713;DHT22;7957;51.608;6.916;2023-02-22T03:55:09;6.30;99.90
15713;DHT22;7957;51.608;6.916;2023-02-22T03:57:38;6.30;99.90
15713;DHT22;7957;51.608;6.916;2023-02-22T04:00:10;6.40;99.90
15713;DHT22;7957;51.608;6.916;2023-02-22T04:02:39;6.40;99.90
15713;DHT22;7957;51.608;6.916;2023-02-22T04:05:08;6.40;99.90
15713;DHT22;7957;51.608;6.916;2023-02-22T04:07:35;6.40;99.90
15713;DHT22;7957;51.608;6.916;2023-02-22T04:10:03;6.40;99.90
15713;DHT22;7957;51.608;6.916;2023-02-22T04:12:33;6.40;99.90
15713;DHT22;7957;51.608;6.916;2023-02-22T04:15:00;6.40;99.90
15713;DHT22;7957;51.608;6.916;2023-02-22T04:17:27;6.40;99.90
15713;DHT22;7957;51.608;6.916;2023-02-22T04:19:54;6.40;99.90
15713;DHT22;7957;51.608;6.916;2023-02-22T04:22:23;6.40;99.90
15713;DHT22;7957;51.608;6.916;2023-02-22T04:24:50;6.40;99.90
15713;DHT22;7957;51.608;6.916;2023-02-22T04:27:18;6.50;99.90
15713;DHT22;7957;51.608;6.916;2023-02-22T04:29:45;6.50;99.90
15713;DHT22;7957;51.608;6.916;2023-02-22T04:32:12;6.50;99.90
15713;DHT22;7957;51.608;6.916;2023-02-22T04:34:39;6.50;99.90
15713;DHT22;7957;51.608;6.916;2023-02-22T04:37:06;6.50;99.90
15713;DHT22;7957;51.608;6.916;2023-02-22T04:39:36;6.50;99.90
15713;DHT22;7957;51.608;6.916;2023-02-22T04:42:03;6.50;99.90
15713;DHT22;7957;51.608;6.916;2023-02-22T04:44:30;6.40;99.90
15713;DHT22;7957;51.608;6.916;2023-02-22T04:46:57;6.40;99.90
15713;DHT22;7957;51.608;6.916;2023-02-22T04:49:24;6.50;99.90
15713;DHT22;7957;51.608;6.916;2023-02-22T04:51:51;6.50;99.90
15713;DHT22;7957;51.608;6.916;2023-02-22T04:54:18;6.50;99.90
15713;DHT22;7957;51.608;6.916;2023-02-22T04:56:47;6.50;99.90
15713;DHT22;7957;51.608;6.916;2023-02-22T04:59:14;6.50;99.90
15713;DHT22;7957;51.608;6.916;2023-02-22T05:01:41;6.50;99.90
15713;DHT22;7957;51.608;6.916;2023-02-22T05:04:10;6.50;99.90
15713;DHT22;7957;51.608;6.916;2023-02-22T05:06:37;6.50;99.90
15713;DHT22;7957;51.608;6.916;2023-02-22T05:09:04;6.50;99.90
15713;DHT22;7957;51.608;6.916;2023-02-22T05:11:31;6.50;99.90
15713;DHT22;7957;51.608;6.916;2023-02-22T05:13:59;6.50;99.90
15713;DHT22;7957;51.608;6.916;2023-02-22T05:16:26;6.50;99.90
15713;DHT22;7957;51.608;6.916;2023-02-22T05:18:53;6.50;99.90
15713;DHT22;7957;51.608;6.916;2023-02-22T05:21:20;6.50;99.90
15713;DHT22;7957;51.608;6.916;2023-02-22T05:23:48;6.50;99.90
15713;DHT22;7957;51.608;6.916;2023-02-22T05:26:15;6.50;99.90
15713;DHT22;7957;51.608;6.916;2023-02-22T05:28:42;6.50;99.90
15713;DHT22;7957;51.608;6.916;2023-02-22T05:31:10;6.50;99.90
15713;DHT22;7957;51.608;6.916;2023-02-22T05:33:37;6.50;99.90
15713;DHT22;7957;51.608;6.916;2023-02-22T05:36:05;6.50;99.90
15713;DHT22;7957;51.608;6.916;2023-02-22T05:38:32;6.50;99.90
15713;DHT22;7957;51.608;6.916;2023-02-22T05:41:00;6.50;99.90
15713;DHT22;7957;51.608;6.916;2023-02-22T05:43:27;6.50;99.90
15713;DHT22;7957;51.608;6.916;2023-02-22T05:45:54;6.50;99.90
15713;DHT22;7957;51.608;6.916;2023-02-22T05:48:22;6.50;99.90
15713;DHT22;7957;51.608;6.916;2023-02-22T05:50:50;6.50;99.90
15713;DHT22;7957;51.608;6.916;2023-02-22T05:53:16;6.50;99.90
15713;DHT22;7957;51.608;6.916;2023-02-22T05:55:43;6.50;99.90
15713;DHT22;7957;51.608;6.916;2023-02-22T05:58:10;6.50;99.90
15713;DHT22;7957;51.608;6.916;2023-02-22T06:00:37;6.50;99.90
15713;DHT22;7957;51.608;6.916;2023-02-22T06:03:05;6.50;99.90
15713;DHT22;7957;51.608;6.916;2023-02-22T06:05:35;6.50;99.90
15713;DHT22;7957;51.608;6.916;2023-02-22T06:08:03;6.50;99.90
15713;DHT22;7957;51.608;6.916;2023-02-22T06:10:30;6.50;99.90
15713;DHT22;7957;51.608;6.916;2023-02-22T06:12:58;6.50;99.90
15713;DHT22;7957;51.608;6.916;2023-02-22T06:15:26;6.50;99.90
15713;DHT22;7957;51.608;6.916;2023-02-22T06:17:54;6.50;99.90
15713;DHT22;7957;51.608;6.916;2023-02-22T06:20:24;6.50;99.90
15713;DHT22;7957;51.608;6.916;2023-02-22T06:22:54;6.40;99.90
15713;DHT22;7957;51.608;6.916;2023-02-22T06:25:22;6.40;99.90
15713;DHT22;7957;51.608;6.916;2023-02-22T06:27:49;6.40;99.90
15713;DHT22;7957;51.608;6.916;2023-02-22T06:30:18;6.40;99.90
15713;DHT22;7957;51.608;6.916;2023-02-22T06:32:46;6.30;99.90
15713;DHT22;7957;51.608;6.916;2023-02-22T06:35:13;6.30;99.90
15713;DHT22;7957;51.608;6.916;2023-02-22T06:37:41;6.30;99.90
15713;DHT22;7957;51.608;6.916;2023-02-22T06:40:11;6.30;99.90
15713;DHT22;7957;51.608;6.916;2023-02-22T06:42:38;6.30;99.90
15713;DHT22;7957;51.608;6.916;2023-02-22T06:45:05;6.30;99.90
15713;DHT22;7957;51.608;6.916;2023-02-22T06:47:36;6.30;99.90
15713;DHT22;7957;51.608;6.916;2023-02-22T06:50:03;6.30;99.90
15713;DHT22;7957;51.608;6.916;2023-02-22T06:52:30;6.30;99.90
15713;DHT22;7957;51.608;6.916;2023-02-22T06:54:57;6.30;99.90
15713;DHT22;7957;51.608;6.916;2023-02-22T06:57:25;6.30;99.90
15713;DHT22;7957;51.608;6.916;2023-02-22T06:59:52;6.30;99.90
15713;DHT22;7957;51.608;6.916;2023-02-22T07:02:19;6.30;99.90
15713;DHT22;7957;51.608;6.916;2023-02-22T07:04:46;6.30;99.90
15713;DHT22;7957;51.608;6.916;2023-02-22T07:07:13;6.30;99.90
15713;DHT22;7957;51.608;6.916;2023-02-22T07:09:40;6.30;99.90
15713;DHT22;7957;51.608;6.916;2023-02-22T07:12:07;6.30;99.90
15713;DHT22;7957;51.608;6.916;2023-02-22T07:14:40;6.30;99.90
15713;DHT22;7957;51.608;6.916;2023-02-22T07:17:07;6.30;99.90
15713;DHT22;7957;51.608;6.916;2023-02-22T07:19:38;6.30;99.90
15713;DHT22;7957;51.608;6.916;2023-02-22T07:22:05;6.20;99.90
15713;DHT22;7957;51.608;6.916;2023-02-22T07:24:32;6.30;99.90
15713;DHT22;7957;51.608;6.916;2023-02-22T07:27:00;6.30;99.90
15713;DHT22;7957;51.608;6.916;2023-02-22T07:29:27;6.30;99.90
15713;DHT22;7957;51.608;6.916;2023-02-22T07:31:56;6.30;99.90
15713;DHT22;7957;51.608;6.916;2023-02-22T07:34:23;6.30;99.90
15713;DHT22;7957;51.608;6.916;2023-02-22T07:36:50;6.30;99.90
15713;DHT22;7957;51.608;6.916;2023-02-22T07:39:17;6.40;99.90
15713;DHT22;7957;51.608;6.916;2023-02-22T07:41:44;6.40;99.90
15713;DHT22;7957;51.608;6.916;2023-02-22T07:44:11;6.40;99.90
15713;DHT22;7957;51.608;6.916;2023-02-22T07:46:38;6.40;99.90
15713;DHT22;7957;51.608;6.916;2023-02-22T07:49:06;6.50;99.90
15713;DHT22;7957;51.608;6.916;2023-02-22T07:51:33;6.50;99.90
15713;DHT22;7957;51.608;6.916;2023-02-22T07:54:00;6.50;99.90
15713;DHT22;7957;51.608;6.916;2023-02-22T07:56:27;6.50;99.90
15713;DHT22;7957;51.608;6.916;2023-02-22T07:58:54;6.50;99.90
15713;DHT22;7957;51.608;6.916;2023-02-22T08:01:21;6.60;99.90
15713;DHT22;7957;51.608;6.916;2023-02-22T08:03:48;6.60;99.90
15713;DHT22;7957;51.608;6.916;2023-02-22T08:06:18;6.60;99.90
15713;DHT22;7957;51.608;6.916;2023-02-22T08:08:50;6.70;99.90
15713;DHT22;7957;51.608;6.916;2023-02-22T08:11:17;6.70;99.90
15713;DHT22;7957;51.608;6.916;2023-02-22T08:13:44;6.70;99.90
15713;DHT22;7957;51.608;6.916;2023-02-22T08:16:11;6.70;99.90
15713;DHT22;7957;51.608;6.916;2023-02-22T08:18:37;6.70;99.90
15713;DHT22;7957;51.608;6.916;2023-02-22T08:21:06;6.80;99.90
15713;DHT22;7957;51.608;6.916;2023-02-22T08:23:34;6.80;99.90
15713;DHT22;7957;51.608;6.916;2023-02-22T08:26:05;6.80;99.90
15713;DHT22;7957;51.608;6.916;2023-02-22T08:28:32;6.80;99.90
15713;DHT22;7957;51.608;6.916;2023-02-22T08:30:59;6.90;99.90
15713;DHT22;7957;51.608;6.916;2023-02-22T08:33:26;6.90;99.90
15713;DHT22;7957;51.608;6.916;2023-02-22T08:35:53;6.90;99.90
15713;DHT22;7957;51.608;6.916;2023-02-22T08:38:22;6.90;99.90
15713;DHT22;7957;51.608;6.916;2023-02-22T08:40:52;6.90;99.90
15713;DHT22;7957;51.608;6.916;2023-02-22T08:43:20;7.00;99.90
15713;DHT22;7957;51.608;6.916;2023-02-22T08:45:47;7.00;99.90
15713;DHT22;7957;51.608;6.916;2023-02-22T08:48:15;7.00;99.90
15713;DHT22;7957;51.608;6.916;2023-02-22T08:50:43;7.00;99.90
15713;DHT22;7957;51.608;6.916;2023-02-22T08:53:12;7.10;99.90
15713;DHT22;7957;51.608;6.916;2023-02-22T08:55:40;7.00;99.90
15713;DHT22;7957;51.608;6.916;2023-02-22T08:58:10;7.10;99.90
15713;DHT22;7957;51.608;6.916;2023-02-22T09:00:38;7.10;99.90
15713;DHT22;7957;51.608;6.916;2023-02-22T09:03:07;7.10;99.90
15713;DHT22;7957;51.608;6.916;2023-02-22T09:05:35;7.20;99.90
15713;DHT22;7957;51.608;6.916;2023-02-22T09:08:02;7.20;99.90
15713;DHT22;7957;51.608;6.916;2023-02-22T09:10:31;7.20;99.90
15713;DHT22;7957;51.608;6.916;2023-02-22T09:12:58;7.30;99.90
15713;DHT22;7957;51.608;6.916;2023-02-22T09:15:28;7.30;99.90
15713;DHT22;7957;51.608;6.916;2023-02-22T09:17:56;7.30;99.90
15713;DHT22;7957;51.608;6.916;2023-02-22T09:20:24;7.40;99.90
15713;DHT22;7957;51.608;6.916;2023-02-22T09:22:51;7.50;99.90
15713;DHT22;7957;51.608;6.916;2023-02-22T09:25:19;7.50;99.90
15713;DHT22;7957;51.608;6.916;2023-02-22T09:27:46;7.60;99.90
15713;DHT22;7957;51.608;6.916;2023-02-22T09:30:21;7.70;99.90
15713;DHT22;7957;51.608;6.916;2023-02-22T09:32:51;7.70;99.90
15713;DHT22;7957;51.608;6.916;2023-02-22T09:35:19;7.80;99.90
15713;DHT22;7957;51.608;6.916;2023-02-22T09:37:52;7.80;99.90
15713;DHT22;7957;51.608;6.916;2023-02-22T09:40:20;7.90;99.90
15713;DHT22;7957;51.608;6.916;2023-02-22T09:43:01;8.00;99.90
15713;DHT22;7957;51.608;6.916;2023-02-22T09:45:33;8.00;99.90
15713;DHT22;7957;51.608;6.916;2023-02-22T09:48:05;8.00;99.90
15713;DHT22;7957;51.608;6.916;2023-02-22T09:50:36;8.00;99.90
15713;DHT22;7957;51.608;6.916;2023-02-22T09:53:06;8.10;99.90
15713;DHT22;7957;51.608;6.916;2023-02-22T09:55:36;8.20;99.90
15713;DHT22;7957;51.608;6.916;2023-02-22T09:58:09;8.30;99.90
15713;DHT22;7957;51.608;6.916;2023-02-22T10:00:40;8.40;99.90
15713;DHT22;7957;51.608;6.916;2023-02-22T10:03:21;8.50;99.90
15713;DHT22;7957;51.608;6.916;2023-02-22T10:05:53;8.60;99.90
15713;DHT22;7957;51.608;6.916;2023-02-22T10:08:26;8.70;99.90
15713;DHT22;7957;51.608;6.916;2023-02-22T10:11:02;8.80;99.90
15713;DHT22;7957;51.608;6.916;2023-02-22T10:13:36;8.90;99.90
15713;DHT22;7957;51.608;6.916;2023-02-22T10:16:14;8.90;99.90
15713;DHT22;7957;51.608;6.916;2023-02-22T10:18:59;9.00;99.90
15713;DHT22;7957;51.608;6.916;2023-02-22T10:21:38;9.00;99.90
15713;DHT22;7957;51.608;6.916;2023-02-22T10:24:18;9.10;99.90
15713;DHT22;7957;51.608;6.916;2023-02-22T10:26:50;9.20;99.90
15713;DHT22;7957;51.608;6.916;2023-02-22T10:29:24;9.20;99.90
15713;DHT22;7957;51.608;6.916;2023-02-22T10:31:57;9.30;99.90
15713;DHT22;7957;51.608;6.916;2023-02-22T10:34:29;9.30;99.90
15713;DHT22;7957;51.608;6.916;2023-02-22T10:37:02;9.40;99.90
15713;DHT22;7957;51.608;6.916;2023-02-22T10:39:35;9.50;99.90
15713;DHT22;7957;51.608;6.916;2023-02-22T10:42:05;9.60;99.90
15713;DHT22;7957;51.608;6.916;2023-02-22T10:44:34;9.70;99.90
15713;DHT22;7957;51.608;6.916;2023-02-22T10:47:03;9.80;99.90
15713;DHT22;7957;51.608;6.916;2023-02-22T10:49:35;9.90;99.90
15713;DHT22;7957;51.608;6.916;2023-02-22T10:52:12;10.00;99.90
15713;DHT22;7957;51.608;6.916;2023-02-22T10:54:41;10.00;99.90
15713;DHT22;7957;51.608;6.916;2023-02-22T10:57:10;10.10;99.90
15713;DHT22;7957;51.608;6.916;2023-02-22T10:59:39;10.20;99.90
15713;DHT22;7957;51.608;6.916;2023-02-22T11:02:15;10.20;99.90
15713;DHT22;7957;51.608;6.916;2023-02-22T11:04:48;10.30;99.90
15713;DHT22;7957;51.608;6.916;2023-02-22T11:07:21;10.30;99.90
15713;DHT22;7957;51.608;6.916;2023-02-22T11:09:51;10.30;99.90
15713;DHT22;7957;51.608;6.916;2023-02-22T11:12:25;10.30;99.90
15713;DHT22;7957;51.608;6.916;2023-02-22T11:14:53;10.40;99.90
15713;DHT22;7957;51.608;6.916;2023-02-22T11:17:29;10.40;99.90
15713;DHT22;7957;51.608;6.916;2023-02-22T11:19:58;10.50;99.90
15713;DHT22;7957;51.608;6.916;2023-02-22T11:22:28;10.60;99.90
15713;DHT22;7957;51.608;6.916;2023-02-22T11:24:58;10.60;99.90
15713;DHT22;7957;51.608;6.916;2023-02-22T11:27:33;10.60;99.90
15713;DHT22;7957;51.608;6.916;2023-02-22T11:30:14;10.70;99.90
15713;DHT22;7957;51.608;6.916;2023-02-22T11:32:47;10.70;99.90
15713;DHT22;7957;51.608;6.916;2023-02-22T11:35:39;10.80;99.90
15713;DHT22;7957;51.608;6.916;2023-02-22T11:38:17;10.80;99.90
15713;DHT22;7957;51.608;6.916;2023-02-22T11:40:48;10.90;99.90
15713;DHT22;7957;51.608;6.916;2023-02-22T11:43:29;10.90;99.90
15713;DHT22;7957;51.608;6.916;2023-02-22T11:46:00;11.10;99.90
15713;DHT22;7957;51.608;6.916;2023-02-22T11:48:30;11.10;99.90
15713;DHT22;7957;51.608;6.916;2023-02-22T11:51:12;11.20;99.90
15713;DHT22;7957;51.608;6.916;2023-02-22T11:53:53;11.30;99.90
15713;DHT22;7957;51.608;6.916;2023-02-22T11:56:29;11.40;99.90
15713;DHT22;7957;51.608;6.916;2023-02-22T11:59:03;11.50;99.90
15713;DHT22;7957;51.608;6.916;2023-02-22T12:01:42;11.60;99.90
15713;DHT22;7957;51.608;6.916;2023-02-22T12:04:39;11.70;99.90
15713;DHT22;7957;51.608;6.916;2023-02-22T12:07:24;11.80;99.90
15713;DHT22;7957;51.608;6.916;2023-02-22T12:10:02;11.90;99.90
15713;DHT22;7957;51.608;6.916;2023-02-22T12:12:40;11.90;99.90
15713;DHT22;7957;51.608;6.916;2023-02-22T12:15:22;12.00;99.90
15713;DHT22;7957;51.608;6.916;2023-02-22T12:17:59;12.10;99.90
15713;DHT22;7957;51.608;6.916;2023-02-22T12:20:32;12.10;99.90
15713;DHT22;7957;51.608;6.916;2023-02-22T12:23:14;12.20;99.90
15713;DHT22;7957;51.608;6.916;2023-02-22T12:25:52;12.30;99.90
15713;DHT22;7957;51.608;6.916;2023-02-22T12:28:28;12.40;99.90
15713;DHT22;7957;51.608;6.916;2023-02-22T12:31:07;12.40;99.90
15713;DHT22;7957;51.608;6.916;2023-02-22T12:33:45;12.50;99.90
15713;DHT22;7957;51.608;6.916;2023-02-22T12:36:16;12.60;99.90
15713;DHT22;7957;51.608;6.916;2023-02-22T12:38:51;12.70;99.90
15713;DHT22;7957;51.608;6.916;2023-02-22T12:41:25;12.70;99.90
15713;DHT22;7957;51.608;6.916;2023-02-22T12:44:00;12.80;99.90
15713;DHT22;7957;51.608;6.916;2023-02-22T12:46:30;12.80;99.90
15713;DHT22;7957;51.608;6.916;2023-02-22T12:49:03;12.90;99.90
15713;DHT22;7957;51.608;6.916;2023-02-22T12:51:38;13.00;99.90
15713;DHT22;7957;51.608;6.916;2023-02-22T12:54:13;13.10;99.90
15713;DHT22;7957;51.608;6.916;2023-02-22T12:56:46;13.10;99.90
15713;DHT22;7957;51.608;6.916;2023-02-22T12:59:17;13.10;99.90
15713;DHT22;7957;51.608;6.916;2023-02-22T13:01:50;13.20;99.90
15713;DHT22;7957;51.608;6.916;2023-02-22T13:04:18;13.30;99.90
15713;DHT22;7957;51.608;6.916;2023-02-22T13:06:58;13.30;99.90
15713;DHT22;7957;51.608;6.916;2023-02-22T13:12:45;13.30;99.90
15713;DHT22;7957;51.608;6.916;2023-02-22T13:15:19;13.40;99.90
15713;DHT22;7957;51.608;6.916;2023-02-22T13:17:55;13.40;99.90
15713;DHT22;7957;51.608;6.916;2023-02-22T13:20:29;13.40;99.90
15713;DHT22;7957;51.608;6.916;2023-02-22T13:23:01;13.40;99.90
15713;DHT22;7957;51.608;6.916;2023-02-22T13:25:37;13.40;99.90
15713;DHT22;7957;51.608;6.916;2023-02-22T13:28:20;13.40;99.90
15713;DHT22;7957;51.608;6.916;2023-02-22T13:30:58;13.40;99.90
15713;DHT22;7957;51.608;6.916;2023-02-22T13:33:50;13.40;99.90
15713;DHT22;7957;51.608;6.916;2023-02-22T13:36:35;13.40;99.90
15713;DHT22;7957;51.608;6.916;2023-02-22T13:39:22;13.40;99.90
15713;DHT22;7957;51.608;6.916;2023-02-22T13:42:22;13.40;99.90
15713;DHT22;7957;51.608;6.916;2023-02-22T13:45:21;13.40;99.90
15713;DHT22;7957;51.608;6.916;2023-02-22T13:48:13;13.30;99.90
15713;DHT22;7957;51.608;6.916;2023-02-22T13:50:57;13.30;99.90
15713;DHT22;7957;51.608;6.916;2023-02-22T13:53:34;13.30;99.90
15713;DHT22;7957;51.608;6.916;2023-02-22T13:56:08;13.30;99.90
15713;DHT22;7957;51.608;6.916;2023-02-22T13:58:47;13.30;99.90
15713;DHT22;7957;51.608;6.916;2023-02-22T14:01:38;13.20;99.90
15713;DHT22;7957;51.608;6.916;2023-02-22T14:10:43;13.20;99.90
15713;DHT22;7957;51.608;6.916;2023-02-22T14:13:11;13.20;99.90
15713;DHT22;7957;51.608;6.916;2023-02-22T14:18:41;13.10;99.90
15713;DHT22;7957;51.608;6.916;2023-02-22T14:21:10;13.10;99.90
15713;DHT22;7957;51.608;6.916;2023-02-22T14:23:38;13.10;99.90
15713;DHT22;7957;51.608;6.916;2023-02-22T14:26:11;13.10;99.90
15713;DHT22;7957;51.608;6.916;2023-02-22T14:28:43;13.10;99.90
15713;DHT22;7957;51.608;6.916;2023-02-22T14:31:14;13.20;99.90
15713;DHT22;7957;51.608;6.916;2023-02-22T14:34:10;13.20;99.90
15713;DHT22;7957;51.608;6.916;2023-02-22T14:36:46;13.20;99.90
15713;DHT22;7957;51.608;6.916;2023-02-22T14:39:22;13.30;99.90
15713;DHT22;7957;51.608;6.916;2023-02-22T14:41:56;13.30;99.90
15713;DHT22;7957;51.608;6.916;2023-02-22T14:44:28;13.30;99.90
15713;DHT22;7957;51.608;6.916;2023-02-22T14:46:57;13.30;99.90
15713;DHT22;7957;51.608;6.916;2023-02-22T14:49:32;13.30;99.90
15713;DHT22;7957;51.608;6.916;2023-02-22T14:52:12;13.30;99.90
15713;DHT22;7957;51.608;6.916;2023-02-22T14:54:51;13.30;99.90
15713;DHT22;7957;51.608;6.916;2023-02-22T14:57:24;13.30;99.90
15713;DHT22;7957;51.608;6.916;2023-02-22T15:00:03;13.20;99.90
15713;DHT22;7957;51.608;6.916;2023-02-22T15:02:44;13.10;99.90
15713;DHT22;7957;51.608;6.916;2023-02-22T15:05:14;13.10;99.90
15713;DHT22;7957;51.608;6.916;2023-02-22T15:07:52;13.00;99.90
15713;DHT22;7957;51.608;6.916;2023-02-22T15:10:23;13.00;99.90
15713;DHT22;7957;51.608;6.916;2023-02-22T15:12:52;12.90;99.90
15713;DHT22;7957;51.608;6.916;2023-02-22T15:15:21;12.90;99.90
15713;DHT22;7957;51.608;6.916;2023-02-22T15:17:52;12.80;99.90
15713;DHT22;7957;51.608;6.916;2023-02-22T15:20:22;12.80;99.90
15713;DHT22;7957;51.608;6.916;2023-02-22T15:22:51;12.80;99.90
15713;DHT22;7957;51.608;6.916;2023-02-22T15:25:27;12.70;99.90
15713;DHT22;7957;51.608;6.916;2023-02-22T15:28:01;12.70;98.10
15713;DHT22;7957;51.608;6.916;2023-02-22T15:30:30;12.60;95.50
15713;DHT22;7957;51.608;6.916;2023-02-22T15:33:10;12.60;91.40
15713;DHT22;7957;51.608;6.916;2023-02-22T15:35:39;12.60;69.60
15713;DHT22;7957;51.608;6.916;2023-02-22T15:38:17;12.50;99.90
15713;DHT22;7957;51.608;6.916;2023-02-22T15:40:46;12.50;99.90
15713;DHT22;7957;51.608;6.916;2023-02-22T15:43:17;12.50;99.90
15713;DHT22;7957;51.608;6.916;2023-02-22T15:45:47;12.40;99.90
15713;DHT22;7957;51.608;6.916;2023-02-22T15:48:16;12.40;99.90
15713;DHT22;7957;51.608;6.916;2023-02-22T15:51:01;12.40;99.90
15713;DHT22;7957;51.608;6.916;2023-02-22T15:53:39;12.30;99.90
15713;DHT22;7957;51.608;6.916;2023-02-22T15:56:11;12.30;99.90
15713;DHT22;7957;51.608;6.916;2023-02-22T15:58:39;12.20;99.90
15713;DHT22;7957;51.608;6.916;2023-02-22T16:01:08;12.20;99.90
15713;DHT22;7957;51.608;6.916;2023-02-22T16:03:38;12.20;99.90
15713;DHT22;7957;51.608;6.916;2023-02-22T16:06:13;12.10;99.90
15713;DHT22;7957;51.608;6.916;2023-02-22T16:08:43;12.10;99.90
15713;DHT22;7957;51.608;6.916;2023-02-22T16:11:19;12.10;99.90
15713;DHT22;7957;51.608;6.916;2023-02-22T16:13:55;12.10;99.90
15713;DHT22;7957;51.608;6.916;2023-02-22T16:16:27;12.10;99.90
15713;DHT22;7957;51.608;6.916;2023-02-22T16:19:26;12.00;99.90
15713;DHT22;7957;51.608;6.916;2023-02-22T16:22:00;12.00;99.90
15713;DHT22;7957;51.608;6.916;2023-02-22T16:24:30;11.90;99.90
15713;DHT22;7957;51.608;6.916;2023-02-22T16:27:14;11.90;99.90
15713;DHT22;7957;51.608;6.916;2023-02-22T16:29:43;11.80;99.90
15713;DHT22;7957;51.608;6.916;2023-02-22T16:32:10;11.80;99.90
15713;DHT22;7957;51.608;6.916;2023-02-22T16:34:39;11.80;99.90
15713;DHT22;7957;51.608;6.916;2023-02-22T16:37:19;11.70;99.90
15713;DHT22;7957;51.608;6.916;2023-02-22T16:39:48;11.70;99.90
15713;DHT22;7957;51.608;6.916;2023-02-22T16:42:17;11.60;99.90
15713;DHT22;7957;51.608;6.916;2023-02-22T16:44:49;11.70;99.90
15713;DHT22;7957;51.608;6.916;2023-02-22T16:47:16;11.60;99.90
15713;DHT22;7957;51.608;6.916;2023-02-22T16:49:44;11.60;99.90
15713;DHT22;7957;51.608;6.916;2023-02-22T16:52:11;11.50;99.90
15713;DHT22;7957;51.608;6.916;2023-02-22T16:54:43;11.50;99.90
15713;DHT22;7957;51.608;6.916;2023-02-22T16:57:17;11.40;99.90
15713;DHT22;7957;51.608;6.916;2023-02-22T16:59:45;11.40;99.90
15713;DHT22;7957;51.608;6.916;2023-02-22T17:02:15;11.30;99.90
15713;DHT22;7957;51.608;6.916;2023-02-22T17:04:42;11.30;99.90
15713;DHT22;7957;51.608;6.916;2023-02-22T17:07:16;11.30;99.90
15713;DHT22;7957;51.608;6.916;2023-02-22T17:09:44;11.20;99.90
15713;DHT22;7957;51.608;6.916;2023-02-22T17:12:12;11.20;99.90
15713;DHT22;7957;51.608;6.916;2023-02-22T17:14:39;11.20;99.90
15713;DHT22;7957;51.608;6.916;2023-02-22T17:17:11;11.20;99.90
15713;DHT22;7957;51.608;6.916;2023-02-22T17:19:38;11.10;99.90
15713;DHT22;7957;51.608;6.916;2023-02-22T17:22:05;11.10;99.90
15713;DHT22;7957;51.608;6.916;2023-02-22T17:24:34;11.10;99.90
15713;DHT22;7957;51.608;6.916;2023-02-22T17:27:02;11.00;99.90
15713;DHT22;7957;51.608;6.916;2023-02-22T17:29:29;11.00;99.90
15713;DHT22;7957;51.608;6.916;2023-02-22T17:31:56;11.00;99.90
15713;DHT22;7957;51.608;6.916;2023-02-22T17:34:23;10.90;99.90
15713;DHT22;7957;51.608;6.916;2023-02-22T17:36:50;10.90;99.90
15713;DHT22;7957;51.608;6.916;2023-02-22T17:39:18;10.90;99.90
15713;DHT22;7957;51.608;6.916;2023-02-22T17:41:44;10.80;99.90
15713;DHT22;7957;51.608;6.916;2023-02-22T17:44:14;10.80;99.90
15713;DHT22;7957;51.608;6.916;2023-02-22T17:46:41;10.70;99.90
15713;DHT22;7957;51.608;6.916;2023-02-22T17:49:08;10.70;99.90
15713;DHT22;7957;51.608;6.916;2023-02-22T17:51:39;10.70;99.90
15713;DHT22;7957;51.608;6.916;2023-02-22T17:54:06;10.60;99.90
15713;DHT22;7957;51.608;6.916;2023-02-22T17:56:33;10.60;99.90
15713;DHT22;7957;51.608;6.916;2023-02-22T17:59:00;10.50;99.90
15713;DHT22;7957;51.608;6.916;2023-02-22T18:01:30;10.50;99.90
15713;DHT22;7957;51.608;6.916;2023-02-22T18:04:00;10.50;99.90
15713;DHT22;7957;51.608;6.916;2023-02-22T18:06:28;10.40;99.90
15713;DHT22;7957;51.608;6.916;2023-02-22T18:08:58;10.40;99.90
15713;DHT22;7957;51.608;6.916;2023-02-22T18:11:27;10.40;99.90
15713;DHT22;7957;51.608;6.916;2023-02-22T18:13:57;10.40;99.90
15713;DHT22;7957;51.608;6.916;2023-02-22T18:16:25;10.30;99.90
15713;DHT22;7957;51.608;6.916;2023-02-22T18:18:54;10.30;99.90
15713;DHT22;7957;51.608;6.916;2023-02-22T18:21:21;10.30;99.90
15713;DHT22;7957;51.608;6.916;2023-02-22T18:23:48;10.30;99.90
15713;DHT22;7957;51.608;6.916;2023-02-22T18:26:16;10.30;99.90
15713;DHT22;7957;51.608;6.916;2023-02-22T18:28:44;10.30;99.90
15713;DHT22;7957;51.608;6.916;2023-02-22T18:31:15;10.30;99.90
15713;DHT22;7957;51.608;6.916;2023-02-22T18:33:43;10.30;99.90
15713;DHT22;7957;51.608;6.916;2023-02-22T18:36:12;10.30;99.90
15713;DHT22;7957;51.608;6.916;2023-02-22T18:38:41;10.20;99.90
15713;DHT22;7957;51.608;6.916;2023-02-22T18:41:09;10.20;99.90
15713;DHT22;7957;51.608;6.916;2023-02-22T18:43:37;10.20;99.90
15713;DHT22;7957;51.608;6.916;2023-02-22T18:46:05;10.10;99.90
15713;DHT22;7957;51.608;6.916;2023-02-22T18:48:32;10.10;99.90
15713;DHT22;7957;51.608;6.916;2023-02-22T18:50:59;10.10;99.90
15713;DHT22;7957;51.608;6.916;2023-02-22T18:53:29;10.10;99.90
15713;DHT22;7957;51.608;6.916;2023-02-22T18:55:55;10.10;99.90
15713;DHT22;7957;51.608;6.916;2023-02-22T18:58:22;10.00;99.90
15713;DHT22;7957;51.608;6.916;2023-02-22T19:00:49;10.00;99.90
15713;DHT22;7957;51.608;6.916;2023-02-22T19:03:16;10.00;99.90
15713;DHT22;7957;51.608;6.916;2023-02-22T19:05:43;10.00;99.90
15713;DHT22;7957;51.608;6.916;2023-02-22T19:08:14;10.00;99.90
15713;DHT22;7957;51.608;6.916;2023-02-22T19:10:43;9.90;99.90
15713;DHT22;7957;51.608;6.916;2023-02-22T19:13:14;9.90;99.90
15713;DHT22;7957;51.608;6.916;2023-02-22T19:15:41;9.90;99.90
15713;DHT22;7957;51.608;6.916;2023-02-22T19:18:09;9.90;99.90
15713;DHT22;7957;51.608;6.916;2023-02-22T19:20:35;9.90;99.90
15713;DHT22;7957;51.608;6.916;2023-02-22T19:23:03;9.90;99.90
15713;DHT22;7957;51.608;6.916;2023-02-22T19:25:37;9.90;99.90
15713;DHT22;7957;51.608;6.916;2023-02-22T19:28:07;9.90;99.90
15713;DHT22;7957;51.608;6.916;2023-02-22T19:30:34;9.90;99.90
15713;DHT22;7957;51.608;6.916;2023-02-22T19:33:03;9.90;99.90
15713;DHT22;7957;51.608;6.916;2023-02-22T19:35:30;9.90;99.90